Time;durP1;ratioP1;P1;durP2;ratioP2;P2;SDS_P1;SDS_P2;PMS_P1;PMS_P2;Temp;Humidity;BMP_temperature;BMP_pressure;BME280_temperature;BME280_humidity;BME280_pressure;Samples;Min_cycle;Max_cycle;Signal;HPM_P1;HPM_P2
2024/01/22 00:00:20;;;;;;;0.82;0.82;;;;;;;8.94;100.00;100722.63;5054589;27;101150;-27
2024/01/22 00:02:45;;;;;;;1.05;0.88;;;;;;;8.95;100.00;100707.28;5055856;27;97964;-28
2024/01/22 00:05:11;;;;;;;1.10;1.00;;;;;;;8.99;100.00;100720.53;5056242;27;96592;-27
2024/01/22 00:07:36;;;;;;;2.75;1.63;;;;;;;8.98;100.00;100718.78;5056448;27;96760;-27
2024/01/22 00:10:03;;;;;;;1.58;0.95;;;;;;;9.04;100.00;100726.53;5054615;27;99605;-27
2024/01/22 00:12:30;;;;;;;1.95;1.10;;;;;;;9.04;100.00;100709.47;5054800;27;101951;-29
2024/01/22 00:14:55;;;;;;;0.90;0.70;;;;;;;9.09;100.00;100715.47;5056038;27;96654;-28
2024/01/22 00:17:21;;;;;;;2.47;1.27;;;;;;;9.07;100.00;100687.66;5056395;27;96581;-27
2024/01/22 00:19:46;;;;;;;3.60;2.10;;;;;;;9.04;100.00;100702.22;5055214;27;103665;-27
2024/01/22 00:22:11;;;;;;;1.20;0.88;;;;;;;9.18;100.00;100709.53;5055784;27;97382;-27
2024/01/22 00:24:36;;;;;;;1.30;0.50;;;;;;;9.18;100.00;100706.84;5056253;27;96594;-29
2024/01/22 00:27:02;;;;;;;1.98;1.13;;;;;;;9.23;100.00;100702.03;5056214;27;96801;-28
2024/01/22 00:29:27;;;;;;;0.85;0.65;;;;;;;9.27;100.00;100702.72;5055689;27;98200;-34
2024/01/22 00:31:52;;;;;;;2.63;1.00;;;;;;;9.22;100.00;100681.34;5055500;27;102740;-29
2024/01/22 00:34:18;;;;;;;3.17;1.02;;;;;;;9.26;100.00;100709.09;5056060;27;96618;-27
2024/01/22 00:36:44;;;;;;;1.42;0.65;;;;;;;9.25;100.00;100689.31;5056421;27;96811;-27
2024/01/22 00:39:09;;;;;;;1.40;0.80;;;;;;;9.28;100.00;100675.59;5054195;27;101357;-28
2024/01/22 00:41:35;;;;;;;2.78;1.23;;;;;;;9.33;100.00;100670.78;5055420;27;97327;-27
2024/01/22 00:44:00;;;;;;;0.57;0.57;;;;;;;9.32;100.00;100685.28;5055459;27;96610;-27
2024/01/22 00:46:25;;;;;;;3.55;0.98;;;;;;;9.35;100.00;100673.41;5055524;27;96997;-27
2024/01/22 00:48:51;;;;;;;0.80;0.80;;;;;;;9.31;100.00;100656.50;5055031;27;101364;-27
2024/01/22 00:51:16;;;;;;;1.60;1.10;;;;;;;9.31;100.00;100652.94;5053999;27;99138;-29
2024/01/22 00:53:41;;;;;;;0.40;0.40;;;;;;;9.41;100.00;100659.50;5055635;27;96803;-28
2024/01/22 00:56:07;;;;;;;2.35;1.00;;;;;;;9.44;100.00;100674.69;5054483;27;96913;-28
2024/01/22 00:58:32;;;;;;;1.85;0.80;;;;;;;9.46;100.00;100684.47;5055227;27;99058;-27
2024/01/22 01:00:57;;;;;;;1.58;1.15;;;;;;;9.44;100.00;100662.06;5055400;27;105300;-27
2024/01/22 01:03:22;;;;;;;0.60;0.60;;;;;;;9.52;100.00;100678.69;5055168;27;98305;-28
2024/01/22 01:05:48;;;;;;;0.82;0.68;;;;;;;9.48;100.00;100651.91;5055526;27;96866;-27
2024/01/22 01:08:14;;;;;;;2.47;0.98;;;;;;;9.40;100.00;100640.69;5053218;27;100496;-27
2024/01/22 01:10:39;;;;;;;1.27;0.55;;;;;;;9.46;100.00;100651.13;5054834;27;99216;-27
2024/01/22 01:13:04;;;;;;;2.40;0.73;;;;;;;9.47;100.00;100636.66;5055367;27;97758;-27
2024/01/22 01:15:30;;;;;;;0.45;0.45;;;;;;;9.46;100.00;100629.50;5055336;27;96842;-28
2024/01/22 01:17:55;;;;;;;0.75;0.55;;;;;;;9.46;100.00;100621.41;5054839;27;99234;-28
2024/01/22 01:20:20;;;;;;;1.08;0.45;;;;;;;9.49;100.00;100613.97;5054891;27;104256;-28
2024/01/22 01:22:45;;;;;;;0.73;0.30;;;;;;;9.56;100.00;100607.22;5055034;27;96759;-28
2024/01/22 01:25:11;;;;;;;1.80;1.13;;;;;;;9.62;100.00;100603.28;5055461;27;96843;-27
2024/01/22 01:27:37;;;;;;;0.43;0.32;;;;;;;9.65;100.00;100586.84;5053465;27;98970;-28
2024/01/22 01:30:03;;;;;;;1.05;0.60;;;;;;;9.67;100.00;100575.94;5054642;27;98238;-28
2024/01/22 01:32:28;;;;;;;0.52;0.52;;;;;;;9.72;100.00;100563.88;5053305;27;96637;-28
2024/01/22 01:34:54;;;;;;;0.40;0.40;;;;;;;9.77;100.00;100556.34;5055141;27;96492;-27
2024/01/22 01:37:19;;;;;;;4.65;0.40;;;;;;;9.82;100.00;100545.25;5054699;27;99732;-27
2024/01/22 01:39:44;;;;;;;0.43;0.40;;;;;;;9.90;100.00;100564.56;5054875;27;97821;-27
2024/01/22 01:42:10;;;;;;;1.38;0.77;;;;;;;9.95;100.00;100572.38;5054806;27;96496;-27
2024/01/22 01:44:38;;;;;;;2.17;0.50;;;;;;;10.03;100.00;100577.31;5054986;27;96467;-27
2024/01/22 01:47:04;;;;;;;0.82;0.57;;;;;;;10.07;100.00;100546.38;5054693;27;97772;-27
2024/01/22 01:49:30;;;;;;;1.05;0.60;;;;;;;10.13;100.00;100541.44;5053592;27;100680;-27
2024/01/22 01:51:56;;;;;;;1.85;0.90;;;;;;;10.16;100.00;100557.47;5054775;27;96517;-28
2024/01/22 01:54:22;;;;;;;0.32;0.22;;;;;;;10.16;100.00;100526.84;5054458;27;96845;-28
2024/01/22 01:56:48;;;;;;;0.47;0.40;;;;;;;10.13;100.00;100524.31;5052159;27;100974;-28
2024/01/22 01:59:13;;;;;;;1.25;0.60;;;;;;;10.09;100.00;100510.13;5054542;27;97205;-27
2024/01/22 02:01:39;;;;;;;0.38;0.38;;;;;;;10.14;100.00;100510.69;5054991;27;96522;-27
2024/01/22 02:04:04;;;;;;;1.08;0.80;;;;;;;10.11;100.00;100504.63;5058679;27;96824;-28
2024/01/22 02:06:29;;;;;;;0.32;0.30;;;;;;;10.09;100.00;100476.78;5058148;27;98051;-27
2024/01/22 02:08:55;;;;;;;3.80;0.32;;;;;;;9.96;100.00;100479.41;5057839;27;99126;-28
2024/01/22 02:11:21;;;;;;;1.40;0.70;;;;;;;10.00;100.00;100468.28;5058167;27;96561;-28
2024/01/22 02:13:46;;;;;;;0.40;0.40;;;;;;;10.00;100.00;100487.22;5058417;27;96783;-27
2024/01/22 02:16:12;;;;;;;1.10;0.43;;;;;;;9.94;100.00;100465.16;5057549;27;99321;-28
2024/01/22 02:18:37;;;;;;;1.25;0.55;;;;;;;9.93;100.00;100468.78;5057829;27;98833;-28
2024/01/22 02:21:02;;;;;;;0.50;0.40;;;;;;;9.89;100.00;100456.44;5057741;27;96606;-27
2024/01/22 02:23:28;;;;;;;0.95;0.68;;;;;;;9.92;100.00;100453.53;5057658;27;96831;-27
2024/01/22 02:25:53;;;;;;;0.57;0.35;;;;;;;9.86;100.00;100454.78;5057849;27;97945;-27
2024/01/22 02:28:18;;;;;;;1.27;0.47;;;;;;;9.92;100.00;100419.22;5057499;27;97913;-28
2024/01/22 02:30:44;;;;;;;0.32;0.20;;;;;;;9.96;100.00;100418.06;5058076;27;96499;-29
2024/01/22 02:33:09;;;;;;;1.02;0.63;;;;;;;9.97;100.00;100421.66;5057999;27;96818;-27
2024/01/22 02:35:35;;;;;;;2.60;0.52;;;;;;;10.03;100.00;100407.69;5057455;27;99351;-27
2024/01/22 02:38:00;;;;;;;0.85;0.60;;;;;;;10.07;100.00;100425.47;5057645;27;99291;-27
2024/01/22 02:40:25;;;;;;;1.23;0.43;;;;;;;10.08;100.00;100421.81;5057892;27;96607;-27
2024/01/22 02:42:51;;;;;;;0.55;0.40;;;;;;;10.07;100.00;100413.78;5057821;27;96865;-27
2024/01/22 02:45:16;;;;;;;0.70;0.45;;;;;;;10.18;100.00;100406.69;5056787;27;98482;-27
2024/01/22 02:47:42;;;;;;;0.70;0.25;;;;;;;10.14;100.00;100401.56;5057478;27;97905;-28
2024/01/22 02:50:07;;;;;;;0.10;0.10;;;;;;;10.23;100.00;100403.66;5057735;27;96647;-29
2024/01/22 02:52:33;;;;;;;0.20;0.20;;;;;;;10.23;100.00;100398.25;5056146;27;96950;-28
2024/01/22 02:54:58;;;;;;;0.20;0.20;;;;;;;10.24;100.00;100372.03;5056765;27;98237;-28
2024/01/22 02:57:23;;;;;;;0.63;0.50;;;;;;;10.28;100.00;100385.31;5056869;27;97828;-28
2024/01/22 02:59:49;;;;;;;1.23;0.73;;;;;;;10.31;100.00;100357.16;5057064;27;96669;-27
2024/01/22 03:02:14;;;;;;;0.20;0.20;;;;;;;10.34;100.00;100363.22;5057928;27;96822;-28
2024/01/22 03:04:39;;;;;;;0.40;0.30;;;;;;;10.39;100.00;100352.06;5057033;27;97559;-28
2024/01/22 03:07:05;;;;;;;0.73;0.43;;;;;;;10.32;100.00;100342.63;5057230;27;97808;-27
2024/01/22 03:09:30;;;;;;;0.65;0.65;;;;;;;10.28;100.00;100366.34;5056801;27;96555;-27
2024/01/22 03:11:55;;;;;;;0.05;0.05;;;;;;;10.33;100.00;100376.88;5057393;27;96843;-28
2024/01/22 03:14:21;;;;;;;0.82;0.47;;;;;;;10.32;100.00;100334.50;5055567;27;97604;-27
2024/01/22 03:16:46;;;;;;;0.98;0.60;;;;;;;10.29;100.00;100341.00;5055416;27;100688;-27
2024/01/22 03:19:12;;;;;;;0.70;0.30;;;;;;;10.29;100.00;100348.28;5057165;27;96682;-27
2024/01/22 03:21:37;;;;;;;0.30;0.30;;;;;;;10.27;100.00;100350.19;5057313;27;97293;-27
2024/01/22 03:24:03;;;;;;;0.30;0.20;;;;;;;10.32;100.00;100364.28;5056645;27;98939;-28
2024/01/22 03:26:28;;;;;;;0.43;0.30;;;;;;;10.29;100.00;100346.41;5057197;27;97756;-27
2024/01/22 03:28:54;;;;;;;0.40;0.28;;;;;;;10.32;100.00;100345.34;5056863;27;96723;-29
2024/01/22 03:31:27;;;;;;;0.52;0.38;;;;;;;10.34;100.00;100346.97;5057199;27;96806;-29
2024/01/22 03:33:54;;;;;;;0.32;0.20;;;;;;;10.29;100.00;100338.31;5054719;27;100986;-27
2024/01/22 03:36:21;;;;;;;0.55;0.30;;;;;;;10.20;100.00;100333.47;5055006;27;101046;-27
2024/01/22 03:38:46;;;;;;;0.38;0.08;;;;;;;10.21;100.00;100335.22;5055475;27;96621;-28
2024/01/22 03:41:12;;;;;;;0.40;0.40;;;;;;;10.26;100.00;100348.44;5057039;27;96802;-28
2024/01/22 03:43:37;;;;;;;0.20;0.20;;;;;;;10.25;100.00;100357.53;5054957;27;100812;-28
2024/01/22 03:46:03;;;;;;;0.20;0.20;;;;;;;10.25;100.00;100338.59;5056282;27;98098;-28
2024/01/22 03:48:28;;;;;;;0.85;0.43;;;;;;;10.30;100.00;100344.59;5056613;27;96654;-27
2024/01/22 03:50:54;;;;;;;0.22;0.20;;;;;;;10.28;100.00;100333.88;5056839;27;96862;-27
2024/01/22 03:53:20;;;;;;;0.50;0.50;;;;;;;10.33;100.00;100341.69;5054724;27;101082;-28
2024/01/22 03:55:46;;;;;;;0.30;0.22;;;;;;;10.43;100.00;100342.78;5053929;27;101301;-27
2024/01/22 03:58:11;;;;;;;0.22;0.20;;;;;;;10.41;100.00;100340.16;5054500;27;96655;-27
2024/01/22 04:00:38;;;;;;;0.65;0.40;;;;;;;10.44;100.00;100343.63;5056312;27;96882;-28
2024/01/22 04:03:04;;;;;;;1.48;0.38;;;;;;;10.40;100.00;100321.34;5055755;27;99767;-27
2024/01/22 04:05:29;;;;;;;0.35;0.25;;;;;;;10.47;100.00;100321.78;5054537;27;102487;-27
2024/01/22 04:07:54;;;;;;;2.72;0.57;;;;;;;10.49;100.00;100312.56;5056178;27;96688;-27
2024/01/22 04:10:20;;;;;;;0.13;0.13;;;;;;;10.50;100.00;100335.97;5056433;27;96824;-28
2024/01/22 04:12:45;;;;;;;0.43;0.40;;;;;;;10.48;100.00;100329.78;5055871;27;97972;-27
2024/01/22 04:15:10;;;;;;;0.10;0.10;;;;;;;10.53;100.00;100343.00;5056470;27;97662;-28
2024/01/22 04:17:36;;;;;;;0.10;0.10;;;;;;;10.53;100.00;100319.47;5056380;27;96645;-27
2024/01/22 04:20:03;;;;;;;0.17;0.17;;;;;;;10.47;100.00;100327.19;5056195;27;96833;-27
2024/01/22 04:22:28;;;;;;;1.88;0.28;;;;;;;10.40;100.00;100335.72;5055425;27;98338;-28
2024/01/22 04:24:54;;;;;;;0.40;0.30;;;;;;;10.40;100.00;100322.19;5055256;27;98945;-27
2024/01/22 04:27:19;;;;;;;0.13;0.10;;;;;;;10.40;100.00;100307.78;5056145;27;96572;-27
2024/01/22 04:29:45;;;;;;;2.67;0.50;;;;;;;10.34;100.00;100338.84;5056028;27;96807;-29
2024/01/22 04:32:10;;;;;;;0.20;0.20;;;;;;;10.37;100.00;100329.69;5055396;27;99289;-28
2024/01/22 04:34:37;;;;;;;2.85;0.28;;;;;;;10.30;100.00;100331.06;5055536;27;99112;-28
2024/01/22 04:37:04;;;;;;;0.82;0.32;;;;;;;10.28;100.00;100331.16;5055922;27;96674;-27
2024/01/22 04:39:29;;;;;;;0.10;0.10;;;;;;;10.28;100.00;100324.84;5054683;27;96886;-27
2024/01/22 04:41:54;;;;;;;0.30;0.20;;;;;;;10.29;100.00;100332.03;5055357;27;99278;-27
2024/01/22 04:44:20;;;;;;;0.40;0.20;;;;;;;10.24;100.00;100334.16;5055646;27;97324;-28
2024/01/22 04:46:45;;;;;;;1.77;0.20;;;;;;;10.30;100.00;100339.19;5055104;27;96665;-27
2024/01/22 04:49:10;;;;;;;0.10;0.00;;;;;;;10.29;100.00;100342.84;5055783;27;96785;-27
2024/01/22 04:51:36;;;;;;;0.95;0.35;;;;;;;10.22;100.00;100342.38;5055594;27;97936;-27
2024/01/22 04:54:01;;;;;;;0.82;0.32;;;;;;;10.17;100.00;100358.06;5054756;27;99128;-27
2024/01/22 04:56:26;;;;;;;0.30;0.17;;;;;;;10.18;100.00;100367.94;5054943;27;96799;-27
2024/01/22 04:58:52;;;;;;;0.45;0.43;;;;;;;10.07;100.00;100335.31;5055860;27;96575;-27
2024/01/22 05:01:17;;;;;;;0.10;0.10;;;;;;;10.14;100.00;100352.84;5055520;27;98238;-28
2024/01/22 05:03:42;;;;;;;0.17;0.10;;;;;;;10.13;100.00;100327.66;5055520;27;97416;-27
2024/01/22 05:06:08;;;;;;;0.10;0.10;;;;;;;10.14;100.00;100353.72;5055402;27;96637;-27
2024/01/22 05:08:33;;;;;;;0.40;0.25;;;;;;;10.14;100.00;100334.78;5055341;27;96841;-27
2024/01/22 05:10:58;;;;;;;2.80;0.43;;;;;;;10.06;100.00;100341.66;5054588;27;97450;-27
2024/01/22 05:13:24;;;;;;;1.38;0.57;;;;;;;10.15;100.00;100357.28;5055232;27;97948;-28
2024/01/22 05:15:49;;;;;;;1.45;0.60;;;;;;;10.25;100.00;100338.59;5055594;27;96626;-27
2024/01/22 05:18:15;;;;;;;0.32;0.30;;;;;;;10.23;100.00;100357.66;5055211;27;96860;-27
2024/01/22 05:20:40;;;;;;;1.02;0.68;;;;;;;10.23;100.00;100356.78;5054660;27;99456;-28
2024/01/22 05:23:05;;;;;;;0.50;0.40;;;;;;;10.29;100.00;100364.50;5055069;27;97392;-28
2024/01/22 05:25:31;;;;;;;0.10;0.10;;;;;;;10.27;100.00;100364.56;5055278;27;96922;-27
2024/01/22 05:27:57;;;;;;;1.40;0.13;;;;;;;10.35;100.00;100364.09;5055413;27;97000;-27
2024/01/22 05:30:23;;;;;;;0.52;0.25;;;;;;;10.32;100.00;100348.94;5055232;27;97499;-28
2024/01/22 05:32:49;;;;;;;0.13;0.10;;;;;;;10.34;100.00;100357.78;5053261;27;100842;-27
2024/01/22 05:35:15;;;;;;;0.20;0.20;;;;;;;10.39;100.00;100373.72;5054538;27;97216;-27
2024/01/22 05:37:40;;;;;;;0.28;0.15;;;;;;;10.42;100.00;100360.00;5055220;27;96938;-27
2024/01/22 05:40:10;;;;;;;0.00;0.00;;;;;;;10.48;100.00;100383.06;5058407;27;97273;-27
2024/01/22 05:42:35;;;;;;;0.30;0.20;;;;;;;10.45;100.00;100365.19;5058267;27;99742;-28
2024/01/22 05:45:02;;;;;;;3.63;0.20;;;;;;;10.46;100.00;100357.94;5058812;27;96779;-27
2024/01/22 05:47:27;;;;;;;0.20;0.17;;;;;;;10.49;100.00;100360.44;5057126;27;97327;-27
2024/01/22 05:49:52;;;;;;;0.45;0.32;;;;;;;10.50;100.00;100365.75;5057765;27;103292;-27
2024/01/22 05:52:18;;;;;;;0.00;0.00;;;;;;;10.52;100.00;100369.22;5058402;27;107222;-28
2024/01/22 05:54:43;;;;;;;0.52;0.32;;;;;;;10.50;100.00;100381.13;5057649;27;96938;-27
2024/01/22 05:57:09;;;;;;;0.90;0.20;;;;;;;10.49;100.00;100374.00;5058387;27;96783;-28
2024/01/22 05:59:34;;;;;;;2.90;0.57;;;;;;;10.47;100.00;100378.63;5057631;27;97940;-27
2024/01/22 06:02:00;;;;;;;4.90;0.60;;;;;;;10.56;100.00;100403.25;5057940;27;103083;-28
2024/01/22 06:04:26;;;;;;;0.95;0.40;;;;;;;10.57;100.00;100380.59;5058309;27;96858;-27
2024/01/22 06:06:51;;;;;;;0.95;0.60;;;;;;;10.59;100.00;100400.31;5058112;27;96894;-27
2024/01/22 06:09:16;;;;;;;5.15;0.40;;;;;;;10.63;100.00;100385.59;5057695;27;97951;-27
2024/01/22 06:11:43;;;;;;;0.32;0.30;;;;;;;10.59;100.00;100388.63;5057728;27;99648;-27
2024/01/22 06:14:08;;;;;;;1.70;0.47;;;;;;;10.60;100.00;100380.38;5056832;27;96624;-28
2024/01/22 06:16:34;;;;;;;0.25;0.10;;;;;;;10.60;100.00;100385.78;5058705;27;96788;-28
2024/01/22 06:18:59;;;;;;;2.65;0.43;;;;;;;10.59;100.00;100394.03;5057720;27;99344;-27
2024/01/22 06:21:25;;;;;;;2.45;0.22;;;;;;;10.61;100.00;100392.09;5057824;27;97310;-27
2024/01/22 06:23:51;;;;;;;1.27;0.28;;;;;;;10.55;100.00;100393.38;5057512;27;96702;-27
2024/01/22 06:26:17;;;;;;;0.10;0.00;;;;;;;10.61;100.00;100401.09;5057777;27;96891;-27
2024/01/22 06:28:42;;;;;;;0.20;0.20;;;;;;;10.59;100.00;100405.72;5057438;27;99554;-29
2024/01/22 06:31:07;;;;;;;0.45;0.20;;;;;;;10.53;100.00;100397.16;5057412;27;99179;-28
2024/01/22 06:33:33;;;;;;;0.38;0.30;;;;;;;10.54;100.00;100399.78;5057842;27;96687;-27
2024/01/22 06:35:58;;;;;;;4.05;0.57;;;;;;;10.62;100.00;100410.06;5057842;27;96898;-27
2024/01/22 06:38:25;;;;;;;0.00;0.00;;;;;;;10.62;100.00;100400.09;5057315;27;99548;-27
2024/01/22 06:40:50;;;;;;;0.65;0.28;;;;;;;10.72;100.00;100413.88;5057575;27;99229;-27
2024/01/22 06:43:16;;;;;;;4.45;0.60;;;;;;;10.68;100.00;100406.94;5057749;27;96642;-29
2024/01/22 06:45:42;;;;;;;0.15;0.10;;;;;;;10.73;100.00;100390.38;5057829;27;96920;-27
2024/01/22 06:48:07;;;;;;;3.50;0.65;;;;;;;10.70;100.00;100387.88;5055290;27;101180;-28
2024/01/22 06:50:33;;;;;;;1.58;0.77;;;;;;;10.74;100.00;100400.22;5057051;27;99349;-27
2024/01/22 06:52:58;;;;;;;1.30;0.50;;;;;;;10.79;100.00;100392.66;5057106;27;96643;-27
2024/01/22 06:55:23;;;;;;;8.57;1.95;;;;;;;10.88;100.00;100383.88;5057134;27;96808;-27
2024/01/22 06:57:50;;;;;;;3.50;1.08;;;;;;;10.94;100.00;100394.28;5056704;27;103475;-27
2024/01/22 07:00:19;;;;;;;2.25;0.93;;;;;;;11.05;100.00;100426.91;5057238;27;97221;-28
2024/01/22 07:02:44;;;;;;;5.38;0.95;;;;;;;11.05;100.00;100402.50;5056045;27;96924;-28
2024/01/22 07:05:13;;;;;;;4.95;1.08;;;;;;;11.16;100.00;100411.75;5057779;27;96797;-28
2024/01/22 07:07:38;;;;;;;8.25;1.42;;;;;;;11.11;100.00;100406.66;5055401;27;100984;-27
2024/01/22 07:10:08;;;;;;;8.45;1.52;;;;;;;11.16;100.00;100395.47;5055790;27;100757;-27
2024/01/22 07:12:42;;;;;;;3.13;0.82;;;;;;;11.22;100.00;100416.72;5056596;27;96727;-27
2024/01/22 07:15:12;;;;;;;4.15;1.35;;;;;;;11.25;100.00;100414.66;5057172;27;96664;-28
2024/01/22 07:17:37;;;;;;;8.57;0.98;;;;;;;11.23;100.00;100404.91;5056683;27;99302;-27
2024/01/22 07:20:03;;;;;;;12.82;3.00;;;;;;;11.26;100.00;100410.97;5056386;27;98887;-28
2024/01/22 07:22:29;;;;;;;15.45;2.13;;;;;;;11.21;100.00;100413.13;5057303;27;96613;-27
2024/01/22 07:24:54;;;;;;;4.90;0.80;;;;;;;11.29;100.00;100412.59;5056920;27;96745;-27
2024/01/22 07:27:19;;;;;;;2.97;1.25;;;;;;;11.32;100.00;100431.38;5056912;27;97880;-28
2024/01/22 07:29:45;;;;;;;10.93;1.50;;;;;;;11.30;100.00;100437.84;5057118;27;97774;-27
2024/01/22 07:32:10;;;;;;;6.20;1.42;;;;;;;11.26;100.00;100437.22;5056970;27;96527;-27
2024/01/22 07:34:35;;;;;;;1.77;0.63;;;;;;;11.27;100.00;100447.06;5056597;27;96907;-27
2024/01/22 07:37:01;;;;;;;6.57;1.15;;;;;;;11.28;100.00;100437.97;5056245;27;97597;-27
2024/01/22 07:39:26;;;;;;;1.45;0.77;;;;;;;11.24;100.00;100456.28;5056692;27;97341;-27
2024/01/22 07:41:52;;;;;;;6.20;1.45;;;;;;;11.29;100.00;100450.53;5056801;27;96552;-27
2024/01/22 07:44:17;;;;;;;8.48;1.13;;;;;;;11.23;100.00;100448.28;5056589;27;96845;-27
2024/01/22 07:46:43;;;;;;;4.68;1.15;;;;;;;11.14;100.00;100451.66;5056300;27;99321;-27
2024/01/22 07:49:08;;;;;;;4.97;0.95;;;;;;;11.09;100.00;100467.38;5055991;27;99056;-27
2024/01/22 07:51:34;;;;;;;3.40;1.38;;;;;;;10.99;100.00;100457.16;5056835;27;96512;-27
2024/01/22 07:54:00;;;;;;;2.40;0.93;;;;;;;10.87;100.00;100466.16;5055058;27;96941;-27
2024/01/22 07:56:25;;;;;;;3.88;1.30;;;;;;;10.90;100.00;100476.75;5055563;27;102445;-27
2024/01/22 07:58:50;;;;;;;1.80;0.47;;;;;;;10.83;100.00;100476.31;5056417;27;97192;-27
2024/01/22 08:01:16;;;;;;;4.75;0.93;;;;;;;10.78;100.00;100477.63;5055347;27;96508;-27
2024/01/22 08:03:41;;;;;;;8.75;1.55;;;;;;;10.71;100.00;100466.31;5056401;27;96827;-27
2024/01/22 08:06:06;;;;;;;9.35;1.35;;;;;;;10.71;100.00;100490.69;5055984;27;97896;-27
2024/01/22 08:08:32;;;;;;;6.38;1.15;;;;;;;10.63;100.00;100482.25;5055845;27;99199;-28
2024/01/22 08:10:57;;;;;;;2.92;0.95;;;;;;;10.59;100.00;100499.66;5056576;27;96740;-27
2024/01/22 08:13:23;;;;;;;11.48;1.60;;;;;;;10.51;100.00;100532.69;5056447;27;96853;-27
2024/01/22 08:15:49;;;;;;;2.65;0.88;;;;;;;10.45;100.00;100524.94;5056139;27;98106;-27
2024/01/22 08:18:15;;;;;;;6.22;1.33;;;;;;;10.46;100.00;100544.78;5037644;27;100740;-27
2024/01/22 08:20:41;;;;;;;5.43;1.20;;;;;;;10.51;100.00;100527.28;5056436;27;96405;-27
2024/01/22 08:23:06;;;;;;;13.63;1.98;;;;;;;10.53;100.00;100548.81;5056058;27;96970;-27
2024/01/22 08:25:32;;;;;;;8.82;1.10;;;;;;;10.39;100.00;100530.75;5053836;27;101098;-27
2024/01/22 08:27:58;;;;;;;5.93;1.23;;;;;;;10.32;100.00;100537.56;5055545;27;99302;-27
2024/01/22 08:30:25;;;;;;;5.32;1.52;;;;;;;10.26;100.00;100527.97;5055873;27;96613;-27
2024/01/22 08:32:51;;;;;;;4.20;1.02;;;;;;;10.34;100.00;100547.31;5054528;27;96979;-27
2024/01/22 08:35:18;;;;;;;4.00;1.25;;;;;;;10.38;100.00;100545.28;5054119;27;99105;-27
2024/01/22 08:37:47;;;;;;;3.35;0.75;;;;;;;10.44;100.00;100555.72;5054108;27;101189;-27
2024/01/22 08:40:16;;;;;;;7.68;1.35;;;;;;;10.25;100.00;100568.66;5054470;27;96613;-27
2024/01/22 08:42:49;;;;;;;7.75;1.38;;;;;;;10.17;100.00;100561.91;5056107;27;96807;-27
2024/01/22 08:45:15;;;;;;;3.15;1.08;;;;;;;10.06;100.00;100574.38;5054125;27;101114;-27
2024/01/22 08:47:43;;;;;;;7.43;1.00;;;;;;;10.04;100.00;100582.63;5054202;27;100478;-27
2024/01/22 08:50:11;;;;;;;1.92;0.93;;;;;;;9.96;100.00;100579.53;5053891;27;96640;-27
2024/01/22 08:52:37;;;;;;;4.18;0.70;;;;;;;9.85;100.00;100577.50;5054339;27;96911;-28
2024/01/22 08:55:05;;;;;;;6.25;1.13;;;;;;;9.70;100.00;100583.84;5053492;27;101302;-27
2024/01/22 08:57:31;;;;;;;1.55;0.43;;;;;;;9.83;100.00;100595.66;5053721;27;100866;-27
2024/01/22 08:59:57;;;;;;;4.38;0.68;;;;;;;9.82;100.00;100590.34;5054037;27;96583;-27
2024/01/22 09:02:22;;;;;;;5.22;1.27;;;;;;;9.84;100.00;100589.28;5055382;27;96939;-27
2024/01/22 09:04:48;;;;;;;2.78;0.80;;;;;;;9.83;100.00;100600.22;5055106;27;98972;-27
2024/01/22 09:07:14;;;;;;;7.88;0.88;;;;;;;9.81;100.00;100612.97;5055470;27;99289;-28
2024/01/22 09:09:40;;;;;;;3.15;0.85;;;;;;;9.77;100.00;100623.09;5055216;27;96515;-27
2024/01/22 09:12:06;;;;;;;4.93;1.02;;;;;;;9.76;100.00;100624.94;5052826;27;96835;-27
2024/01/22 09:14:31;;;;;;;3.33;1.58;;;;;;;9.73;100.00;100637.78;5054470;27;99386;-27
2024/01/22 09:16:57;;;;;;;2.80;0.65;;;;;;;9.63;100.00;100634.78;5054990;27;97270;-27
2024/01/22 09:19:22;;;;;;;1.95;0.80;;;;;;;9.61;100.00;100638.53;5053865;27;96527;-27
2024/01/22 09:21:48;;;;;;;4.78;0.73;;;;;;;9.66;100.00;100650.81;5055044;27;96853;-27
2024/01/22 09:24:13;;;;;;;2.85;0.60;;;;;;;9.52;100.00;100639.97;5054617;27;109773;-27
2024/01/22 09:26:38;;;;;;;2.30;0.65;;;;;;;9.52;100.00;100657.03;5054688;27;99288;-27
2024/01/22 09:29:04;;;;;;;5.60;1.05;;;;;;;9.46;100.00;100660.13;5055352;27;96620;-28
2024/01/22 09:31:29;;;;;;;10.30;1.40;;;;;;;9.51;100.00;100667.94;5055515;27;96845;-27
2024/01/22 09:33:54;;;;;;;4.13;0.95;;;;;;;9.46;100.00;100648.44;5054722;27;99799;-27
2024/01/22 09:36:21;;;;;;;3.97;1.42;;;;;;;9.44;100.00;100661.16;5054656;27;99208;-27
2024/01/22 09:38:46;;;;;;;2.85;0.77;;;;;;;9.39;100.00;100657.88;5053135;27;96616;-27
2024/01/22 09:41:13;;;;;;;4.82;0.77;;;;;;;9.41;100.00;100664.06;5054962;27;96846;-27
2024/01/22 09:43:40;;;;;;;0.65;0.55;;;;;;;9.42;100.00;100657.72;5054602;27;98004;-27
2024/01/22 09:46:06;;;;;;;0.43;0.30;;;;;;;9.39;100.00;100664.16;5053245;27;100847;-27
2024/01/22 09:48:35;;;;;;;0.43;0.20;;;;;;;9.42;100.00;100668.53;5053468;27;96673;-27
2024/01/22 09:51:01;;;;;;;1.33;0.50;;;;;;;9.36;100.00;100678.72;5053474;27;96841;-27
2024/01/22 09:53:28;;;;;;;0.55;0.30;;;;;;;9.40;100.00;100673.16;5054498;27;99171;-28
2024/01/22 09:55:54;;;;;;;0.93;0.57;;;;;;;9.43;100.00;100684.63;5052645;27;100897;-27
2024/01/22 09:58:29;;;;;;;1.58;0.57;;;;;;;9.46;100.00;100703.41;5053476;27;96870;-28
2024/01/22 10:00:55;;;;;;;1.77;0.90;;;;;;;9.49;100.00;100699.63;5054663;27;96536;-27
2024/01/22 10:03:21;;;;;;;1.38;0.43;;;;;;;9.48;100.00;100693.34;5054065;27;98059;-27
2024/01/22 10:05:48;;;;;;;6.15;0.98;;;;;;;9.47;100.00;100706.97;5052878;27;98778;-27
2024/01/22 10:08:14;;;;;;;0.90;0.52;;;;;;;9.52;100.00;100711.13;5053260;27;96547;-27
2024/01/22 10:10:39;;;;;;;0.60;0.30;;;;;;;9.57;100.00;100718.97;5054743;27;96825;-27
2024/01/22 10:13:07;;;;;;;0.65;0.50;;;;;;;9.66;100.00;100723.81;5053978;27;101559;-27
2024/01/22 10:15:34;;;;;;;3.47;1.35;;;;;;;9.66;100.00;100718.41;5052921;27;100887;-27
2024/01/22 10:18:15;;;;;;;16.88;1.30;;;;;;;9.79;100.00;100732.94;5053050;27;96558;-27
2024/01/22 10:20:42;;;;;;;2.70;0.77;;;;;;;9.89;100.00;100733.28;5053579;27;96923;-27
2024/01/22 10:23:09;;;;;;;2.78;0.88;;;;;;;10.00;100.00;100740.72;5054804;27;99372;-28
2024/01/22 10:25:34;;;;;;;7.90;0.82;;;;;;;10.02;100.00;100736.09;5056114;27;101095;-29
2024/01/22 10:28:16;;;;;;;1.85;1.00;;;;;;;10.21;100.00;100757.47;5057302;27;97686;-27
2024/01/22 10:30:44;;;;;;;5.38;0.40;;;;;;;10.23;100.00;100770.94;5056633;27;96851;-28
2024/01/22 10:33:16;;;;;;;0.80;0.35;;;;;;;10.31;100.00;100772.22;5056140;27;101001;-28
2024/01/22 10:35:42;;;;;;;3.88;1.20;;;;;;;10.28;100.00;100763.41;5056083;27;101051;-27
2024/01/22 10:38:13;;;;;;;7.53;0.55;;;;;;;10.31;100.00;100769.50;5056470;27;96759;-27
2024/01/22 10:40:39;;;;;;;0.68;0.32;;;;;;;10.46;100.00;100780.34;5057750;27;96659;-27
2024/01/22 10:43:19;;;;;;;5.50;0.68;;;;;;;10.51;100.00;100781.84;5057557;27;97469;-27
2024/01/22 10:45:49;;;;;;;0.80;0.40;;;;;;;10.54;100.00;100776.22;5056496;27;100965;-27
2024/01/22 10:48:20;;;;;;;6.18;0.90;;;;;;;10.62;100.00;100784.72;5056174;27;96644;-27
2024/01/22 10:50:46;;;;;;;2.80;0.85;;;;;;;10.71;100.00;100793.25;5056266;27;96743;-27
2024/01/22 10:53:12;;;;;;;2.50;0.80;;;;;;;10.80;100.00;100803.50;5055325;27;100893;-28
2024/01/22 10:55:38;;;;;;;7.05;1.02;;;;;;;10.83;99.17;100795.19;5055252;27;100871;-27
2024/01/22 10:58:13;;;;;;;2.85;0.55;;;;;;;10.88;98.25;100794.88;5056029;27;96591;-27
2024/01/22 11:00:43;;;;;;;7.15;1.00;;;;;;;10.98;98.25;100807.72;5056118;27;96673;-27
2024/01/22 11:03:17;;;;;;;3.67;0.77;;;;;;;11.04;97.71;100820.03;5055454;27;101230;-27
2024/01/22 11:05:45;;;;;;;1.52;0.80;;;;;;;11.00;96.99;100805.81;5055633;27;100847;-27
2024/01/22 11:08:13;;;;;;;4.18;0.63;;;;;;;11.03;96.13;100813.72;5055914;27;96609;-27
2024/01/22 11:10:44;;;;;;;5.80;0.43;;;;;;;11.04;95.61;100826.31;5056229;27;96884;-27
2024/01/22 11:13:12;;;;;;;2.05;0.60;;;;;;;11.08;94.49;100826.13;5055649;27;100901;-27